sensor_id;sensor_type;location;lat;lon;timestamp;P1;durP1;ratioP1;P2;durP2;ratioP2
22812;SDS011;11573;51.334;3.244;2023-04-07T00:01:39;23.58;;;10.68;;
22812;SDS011;11573;51.334;3.244;2023-04-07T00:04:06;34.20;;;11.10;;
22812;SDS011;11573;51.334;3.244;2023-04-07T00:06:34;25.58;;;9.90;;
22812;SDS011;11573;51.334;3.244;2023-04-07T00:09:01;22.38;;;9.80;;
22812;SDS011;11573;51.334;3.244;2023-04-07T00:11:28;16.10;;;9.63;;
22812;SDS011;11573;51.334;3.244;2023-04-07T00:13:55;21.45;;;8.32;;
22812;SDS011;11573;51.334;3.244;2023-04-07T00:16:22;23.25;;;8.55;;
22812;SDS011;11573;51.334;3.244;2023-04-07T00:18:49;14.82;;;7.15;;
22812;SDS011;11573;51.334;3.244;2023-04-07T00:21:16;20.38;;;7.18;;
22812;SDS011;11573;51.334;3.244;2023-04-07T00:23:43;16.17;;;7.65;;
22812;SDS011;11573;51.334;3.244;2023-04-07T00:26:10;14.90;;;7.43;;
22812;SDS011;11573;51.334;3.244;2023-04-07T00:28:39;20.90;;;7.85;;
22812;SDS011;11573;51.334;3.244;2023-04-07T00:31:06;16.48;;;6.03;;
22812;SDS011;11573;51.334;3.244;2023-04-07T00:33:33;21.42;;;5.65;;
22812;SDS011;11573;51.334;3.244;2023-04-07T00:36:00;18.83;;;4.95;;
22812;SDS011;11573;51.334;3.244;2023-04-07T00:38:27;12.73;;;4.70;;
22812;SDS011;11573;51.334;3.244;2023-04-07T00:40:57;14.40;;;4.15;;
22812;SDS011;11573;51.334;3.244;2023-04-07T00:43:25;19.02;;;4.40;;
22812;SDS011;11573;51.334;3.244;2023-04-07T00:45:53;7.30;;;3.38;;
22812;SDS011;11573;51.334;3.244;2023-04-07T00:48:20;15.43;;;4.22;;
22812;SDS011;11573;51.334;3.244;2023-04-07T00:50:47;9.95;;;3.85;;
22812;SDS011;11573;51.334;3.244;2023-04-07T00:53:15;18.10;;;4.13;;
22812;SDS011;11573;51.334;3.244;2023-04-07T00:55:42;10.05;;;4.97;;
22812;SDS011;11573;51.334;3.244;2023-04-07T00:58:09;15.57;;;5.88;;
22812;SDS011;11573;51.334;3.244;2023-04-07T01:00:48;14.82;;;6.07;;
22812;SDS011;11573;51.334;3.244;2023-04-07T01:03:30;15.43;;;4.93;;
22812;SDS011;11573;51.334;3.244;2023-04-07T01:06:01;14.45;;;4.80;;
22812;SDS011;11573;51.334;3.244;2023-04-07T01:08:41;10.82;;;4.32;;
22812;SDS011;11573;51.334;3.244;2023-04-07T01:11:12;10.38;;;4.07;;
22812;SDS011;11573;51.334;3.244;2023-04-07T01:13:47;10.55;;;4.18;;
22812;SDS011;11573;51.334;3.244;2023-04-07T01:16:38;6.40;;;3.53;;
22812;SDS011;11573;51.334;3.244;2023-04-07T01:21:54;19.92;;;3.97;;
22812;SDS011;11573;51.334;3.244;2023-04-07T01:24:39;12.00;;;4.65;;
22812;SDS011;11573;51.334;3.244;2023-04-07T01:30:30;10.60;;;3.83;;
22812;SDS011;11573;51.334;3.244;2023-04-07T01:32:59;13.57;;;3.70;;
22812;SDS011;11573;51.334;3.244;2023-04-07T01:35:28;10.48;;;4.05;;
22812;SDS011;11573;51.334;3.244;2023-04-07T01:37:58;10.00;;;3.22;;
22812;SDS011;11573;51.334;3.244;2023-04-07T01:40:25;11.32;;;3.53;;
22812;SDS011;11573;51.334;3.244;2023-04-07T01:42:53;19.67;;;4.35;;
22812;SDS011;11573;51.334;3.244;2023-04-07T01:45:22;7.43;;;3.63;;
22812;SDS011;11573;51.334;3.244;2023-04-07T01:47:51;16.13;;;4.30;;
22812;SDS011;11573;51.334;3.244;2023-04-07T01:50:20;12.60;;;3.60;;
22812;SDS011;11573;51.334;3.244;2023-04-07T01:52:47;13.85;;;3.58;;
22812;SDS011;11573;51.334;3.244;2023-04-07T01:55:15;13.02;;;4.53;;
22812;SDS011;11573;51.334;3.244;2023-04-07T01:57:52;9.45;;;4.18;;
22812;SDS011;11573;51.334;3.244;2023-04-07T02:00:20;12.70;;;4.53;;
22812;SDS011;11573;51.334;3.244;2023-04-07T02:02:53;11.02;;;3.97;;
22812;SDS011;11573;51.334;3.244;2023-04-07T02:05:24;11.63;;;3.83;;
22812;SDS011;11573;51.334;3.244;2023-04-07T02:07:58;18.58;;;4.57;;
22812;SDS011;11573;51.334;3.244;2023-04-07T02:10:31;13.10;;;4.00;;
22812;SDS011;11573;51.334;3.244;2023-04-07T02:13:02;9.70;;;3.55;;
22812;SDS011;11573;51.334;3.244;2023-04-07T02:15:31;13.00;;;4.18;;
22812;SDS011;11573;51.334;3.244;2023-04-07T02:17:59;9.82;;;3.70;;
22812;SDS011;11573;51.334;3.244;2023-04-07T02:20:27;9.13;;;3.75;;
22812;SDS011;11573;51.334;3.244;2023-04-07T02:22:56;10.88;;;4.00;;
22812;SDS011;11573;51.334;3.244;2023-04-07T02:25:24;8.02;;;3.33;;
22812;SDS011;11573;51.334;3.244;2023-04-07T02:27:55;12.75;;;3.97;;
22812;SDS011;11573;51.334;3.244;2023-04-07T02:30:24;9.15;;;3.28;;
22812;SDS011;11573;51.334;3.244;2023-04-07T02:32:51;13.15;;;3.97;;
22812;SDS011;11573;51.334;3.244;2023-04-07T02:35:19;10.07;;;3.30;;
22812;SDS011;11573;51.334;3.244;2023-04-07T02:37:46;10.88;;;3.20;;
22812;SDS011;11573;51.334;3.244;2023-04-07T02:40:13;12.13;;;3.47;;
22812;SDS011;11573;51.334;3.244;2023-04-07T02:42:41;8.55;;;3.42;;
22812;SDS011;11573;51.334;3.244;2023-04-07T02:45:08;8.63;;;3.30;;
22812;SDS011;11573;51.334;3.244;2023-04-07T02:47:36;10.70;;;3.85;;
22812;SDS011;11573;51.334;3.244;2023-04-07T02:50:04;10.32;;;4.20;;
22812;SDS011;11573;51.334;3.244;2023-04-07T02:52:34;11.18;;;4.38;;
22812;SDS011;11573;51.334;3.244;2023-04-07T02:55:05;13.98;;;4.43;;
22812;SDS011;11573;51.334;3.244;2023-04-07T02:57:33;9.40;;;4.53;;
22812;SDS011;11573;51.334;3.244;2023-04-07T03:00:05;9.57;;;4.40;;
22812;SDS011;11573;51.334;3.244;2023-04-07T03:02:51;14.18;;;4.85;;
22812;SDS011;11573;51.334;3.244;2023-04-07T03:05:18;13.63;;;5.00;;
22812;SDS011;11573;51.334;3.244;2023-04-07T03:07:46;11.25;;;5.55;;
22812;SDS011;11573;51.334;3.244;2023-04-07T03:10:12;14.23;;;4.88;;
22812;SDS011;11573;51.334;3.244;2023-04-07T03:12:39;7.75;;;5.22;;
22812;SDS011;11573;51.334;3.244;2023-04-07T03:15:06;10.38;;;5.00;;
22812;SDS011;11573;51.334;3.244;2023-04-07T03:17:35;12.27;;;4.55;;
22812;SDS011;11573;51.334;3.244;2023-04-07T03:20:03;11.07;;;5.10;;
22812;SDS011;11573;51.334;3.244;2023-04-07T03:22:33;8.95;;;4.82;;
22812;SDS011;11573;51.334;3.244;2023-04-07T03:25:00;11.32;;;4.03;;
22812;SDS011;11573;51.334;3.244;2023-04-07T03:27:27;11.98;;;4.50;;
22812;SDS011;11573;51.334;3.244;2023-04-07T03:29:55;9.50;;;4.38;;
22812;SDS011;11573;51.334;3.244;2023-04-07T03:32:24;7.82;;;4.88;;
22812;SDS011;11573;51.334;3.244;2023-04-07T03:34:51;14.23;;;4.88;;
22812;SDS011;11573;51.334;3.244;2023-04-07T03:37:19;6.72;;;4.55;;
22812;SDS011;11573;51.334;3.244;2023-04-07T03:39:46;14.95;;;4.60;;
22812;SDS011;11573;51.334;3.244;2023-04-07T03:42:29;12.57;;;4.32;;
22812;SDS011;11573;51.334;3.244;2023-04-07T03:45:00;10.25;;;4.25;;
22812;SDS011;11573;51.334;3.244;2023-04-07T03:47:29;11.43;;;5.18;;
22812;SDS011;11573;51.334;3.244;2023-04-07T03:50:00;9.38;;;4.40;;
22812;SDS011;11573;51.334;3.244;2023-04-07T03:52:30;12.27;;;4.22;;
22812;SDS011;11573;51.334;3.244;2023-04-07T03:55:05;16.25;;;4.70;;
22812;SDS011;11573;51.334;3.244;2023-04-07T03:57:33;13.93;;;4.88;;
22812;SDS011;11573;51.334;3.244;2023-04-07T04:00:01;11.88;;;4.40;;
22812;SDS011;11573;51.334;3.244;2023-04-07T04:02:41;9.05;;;4.55;;
22812;SDS011;11573;51.334;3.244;2023-04-07T04:05:12;12.40;;;4.30;;
22812;SDS011;11573;51.334;3.244;2023-04-07T04:07:39;8.70;;;4.30;;
22812;SDS011;11573;51.334;3.244;2023-04-07T04:10:06;12.15;;;4.13;;
22812;SDS011;11573;51.334;3.244;2023-04-07T04:12:39;11.60;;;4.38;;
22812;SDS011;11573;51.334;3.244;2023-04-07T04:15:09;14.65;;;4.72;;
22812;SDS011;11573;51.334;3.244;2023-04-07T04:17:37;15.32;;;4.25;;
22812;SDS011;11573;51.334;3.244;2023-04-07T04:20:04;12.35;;;4.13;;
22812;SDS011;11573;51.334;3.244;2023-04-07T04:22:40;9.27;;;4.03;;
22812;SDS011;11573;51.334;3.244;2023-04-07T04:25:07;15.88;;;4.40;;
22812;SDS011;11573;51.334;3.244;2023-04-07T04:27:35;13.32;;;4.82;;
22812;SDS011;11573;51.334;3.244;2023-04-07T04:30:13;13.43;;;5.07;;
22812;SDS011;11573;51.334;3.244;2023-04-07T04:32:48;11.18;;;5.85;;
22812;SDS011;11573;51.334;3.244;2023-04-07T04:35:19;13.82;;;6.93;;
22812;SDS011;11573;51.334;3.244;2023-04-07T04:38:09;14.77;;;6.63;;
22812;SDS011;11573;51.334;3.244;2023-04-07T04:40:40;11.52;;;6.57;;
22812;SDS011;11573;51.334;3.244;2023-04-07T04:43:07;15.45;;;6.15;;
22812;SDS011;11573;51.334;3.244;2023-04-07T04:45:36;12.73;;;6.68;;
22812;SDS011;11573;51.334;3.244;2023-04-07T04:48:05;12.65;;;6.07;;
22812;SDS011;11573;51.334;3.244;2023-04-07T04:50:33;15.45;;;5.90;;
22812;SDS011;11573;51.334;3.244;2023-04-07T04:53:03;8.20;;;4.85;;
22812;SDS011;11573;51.334;3.244;2023-04-07T04:55:30;11.50;;;5.55;;
22812;SDS011;11573;51.334;3.244;2023-04-07T04:57:58;11.05;;;5.55;;
22812;SDS011;11573;51.334;3.244;2023-04-07T05:00:35;12.32;;;5.13;;
22812;SDS011;11573;51.334;3.244;2023-04-07T05:03:06;10.68;;;4.38;;
22812;SDS011;11573;51.334;3.244;2023-04-07T05:05:37;10.77;;;4.68;;
22812;SDS011;11573;51.334;3.244;2023-04-07T05:08:04;11.75;;;3.85;;
22812;SDS011;11573;51.334;3.244;2023-04-07T05:10:37;10.48;;;3.70;;
22812;SDS011;11573;51.334;3.244;2023-04-07T05:13:10;15.40;;;3.65;;
22812;SDS011;11573;51.334;3.244;2023-04-07T05:15:39;10.85;;;3.17;;
22812;SDS011;11573;51.334;3.244;2023-04-07T05:18:09;12.65;;;3.33;;
22812;SDS011;11573;51.334;3.244;2023-04-07T05:20:36;9.45;;;2.92;;
22812;SDS011;11573;51.334;3.244;2023-04-07T05:23:05;10.52;;;3.28;;
22812;SDS011;11573;51.334;3.244;2023-04-07T05:25:34;6.75;;;2.78;;
22812;SDS011;11573;51.334;3.244;2023-04-07T05:28:03;11.48;;;2.45;;
22812;SDS011;11573;51.334;3.244;2023-04-07T05:30:30;6.40;;;2.28;;
22812;SDS011;11573;51.334;3.244;2023-04-07T05:32:58;5.95;;;1.92;;
22812;SDS011;11573;51.334;3.244;2023-04-07T05:35:36;7.55;;;2.33;;
22812;SDS011;11573;51.334;3.244;2023-04-07T05:38:03;7.05;;;2.10;;
22812;SDS011;11573;51.334;3.244;2023-04-07T05:40:30;13.95;;;2.05;;
22812;SDS011;11573;51.334;3.244;2023-04-07T05:43:00;6.35;;;1.70;;
22812;SDS011;11573;51.334;3.244;2023-04-07T05:45:29;5.32;;;1.52;;
22812;SDS011;11573;51.334;3.244;2023-04-07T05:47:56;8.20;;;1.80;;
22812;SDS011;11573;51.334;3.244;2023-04-07T05:50:30;7.10;;;1.83;;
22812;SDS011;11573;51.334;3.244;2023-04-07T05:53:02;6.65;;;1.88;;
22812;SDS011;11573;51.334;3.244;2023-04-07T05:55:29;5.47;;;2.00;;
22812;SDS011;11573;51.334;3.244;2023-04-07T05:57:57;5.90;;;1.75;;
22812;SDS011;11573;51.334;3.244;2023-04-07T06:00:28;6.82;;;1.40;;
22812;SDS011;11573;51.334;3.244;2023-04-07T06:03:05;6.40;;;1.63;;
22812;SDS011;11573;51.334;3.244;2023-04-07T06:05:44;4.28;;;1.05;;
22812;SDS011;11573;51.334;3.244;2023-04-07T06:08:12;3.55;;;1.33;;
22812;SDS011;11573;51.334;3.244;2023-04-07T06:10:39;2.08;;;1.02;;
22812;SDS011;11573;51.334;3.244;2023-04-07T06:13:07;6.45;;;1.70;;
22812;SDS011;11573;51.334;3.244;2023-04-07T06:15:33;4.68;;;1.75;;
22812;SDS011;11573;51.334;3.244;2023-04-07T06:18:01;6.32;;;1.40;;
22812;SDS011;11573;51.334;3.244;2023-04-07T06:20:28;8.60;;;1.63;;
22812;SDS011;11573;51.334;3.244;2023-04-07T06:22:56;8.07;;;1.90;;
22812;SDS011;11573;51.334;3.244;2023-04-07T06:25:25;4.05;;;1.30;;
22812;SDS011;11573;51.334;3.244;2023-04-07T06:27:52;5.65;;;1.73;;
22812;SDS011;11573;51.334;3.244;2023-04-07T06:30:21;6.70;;;1.60;;
22812;SDS011;11573;51.334;3.244;2023-04-07T06:32:49;5.57;;;1.25;;
22812;SDS011;11573;51.334;3.244;2023-04-07T06:35:16;6.80;;;1.58;;
22812;SDS011;11573;51.334;3.244;2023-04-07T06:37:43;4.88;;;1.58;;
22812;SDS011;11573;51.334;3.244;2023-04-07T06:40:10;10.23;;;1.95;;
22812;SDS011;11573;51.334;3.244;2023-04-07T06:42:37;5.97;;;1.20;;
22812;SDS011;11573;51.334;3.244;2023-04-07T06:45:13;10.52;;;1.50;;
22812;SDS011;11573;51.334;3.244;2023-04-07T06:47:40;3.97;;;1.42;;
22812;SDS011;11573;51.334;3.244;2023-04-07T06:50:07;8.73;;;2.10;;
22812;SDS011;11573;51.334;3.244;2023-04-07T06:52:34;7.63;;;2.05;;
22812;SDS011;11573;51.334;3.244;2023-04-07T06:55:01;6.82;;;1.67;;
22812;SDS011;11573;51.334;3.244;2023-04-07T06:57:29;9.10;;;2.03;;
22812;SDS011;11573;51.334;3.244;2023-04-07T06:59:56;4.82;;;1.50;;
22812;SDS011;11573;51.334;3.244;2023-04-07T07:02:22;7.85;;;1.52;;
22812;SDS011;11573;51.334;3.244;2023-04-07T07:04:50;6.18;;;1.60;;
22812;SDS011;11573;51.334;3.244;2023-04-07T07:07:17;9.75;;;1.70;;
22812;SDS011;11573;51.334;3.244;2023-04-07T07:09:44;8.90;;;1.83;;
22812;SDS011;11573;51.334;3.244;2023-04-07T07:12:11;7.32;;;1.52;;
22812;SDS011;11573;51.334;3.244;2023-04-07T07:14:38;5.95;;;1.73;;
22812;SDS011;11573;51.334;3.244;2023-04-07T07:17:05;10.38;;;1.77;;
22812;SDS011;11573;51.334;3.244;2023-04-07T07:19:32;12.00;;;1.90;;
22812;SDS011;11573;51.334;3.244;2023-04-07T07:21:59;7.15;;;1.70;;
22812;SDS011;11573;51.334;3.244;2023-04-07T07:24:29;8.57;;;1.83;;
22812;SDS011;11573;51.334;3.244;2023-04-07T07:26:59;13.30;;;2.42;;
22812;SDS011;11573;51.334;3.244;2023-04-07T07:29:29;12.43;;;2.20;;
22812;SDS011;11573;51.334;3.244;2023-04-07T07:31:56;13.73;;;2.10;;
22812;SDS011;11573;51.334;3.244;2023-04-07T07:34:23;13.07;;;2.15;;
22812;SDS011;11573;51.334;3.244;2023-04-07T07:36:50;14.38;;;2.45;;
22812;SDS011;11573;51.334;3.244;2023-04-07T07:39:17;7.20;;;1.40;;
22812;SDS011;11573;51.334;3.244;2023-04-07T07:41:44;9.05;;;1.80;;
22812;SDS011;11573;51.334;3.244;2023-04-07T07:44:12;12.88;;;1.70;;
22812;SDS011;11573;51.334;3.244;2023-04-07T07:46:39;14.60;;;2.92;;
22812;SDS011;11573;51.334;3.244;2023-04-07T07:49:06;7.22;;;1.73;;
22812;SDS011;11573;51.334;3.244;2023-04-07T07:51:33;11.43;;;2.15;;
22812;SDS011;11573;51.334;3.244;2023-04-07T07:54:00;9.60;;;1.65;;
22812;SDS011;11573;51.334;3.244;2023-04-07T07:56:27;9.85;;;1.63;;
22812;SDS011;11573;51.334;3.244;2023-04-07T07:58:54;11.10;;;2.13;;
22812;SDS011;11573;51.334;3.244;2023-04-07T08:01:23;9.35;;;2.00;;
22812;SDS011;11573;51.334;3.244;2023-04-07T08:03:50;9.93;;;1.60;;
22812;SDS011;11573;51.334;3.244;2023-04-07T08:06:18;11.95;;;2.28;;
22812;SDS011;11573;51.334;3.244;2023-04-07T08:08:45;15.30;;;2.35;;
22812;SDS011;11573;51.334;3.244;2023-04-07T08:11:12;11.52;;;2.20;;
22812;SDS011;11573;51.334;3.244;2023-04-07T08:13:39;15.85;;;2.42;;
22812;SDS011;11573;51.334;3.244;2023-04-07T08:16:10;12.73;;;3.10;;
22812;SDS011;11573;51.334;3.244;2023-04-07T08:18:37;12.77;;;2.38;;
22812;SDS011;11573;51.334;3.244;2023-04-07T08:21:04;12.88;;;2.13;;
22812;SDS011;11573;51.334;3.244;2023-04-07T08:23:32;12.07;;;1.92;;
22812;SDS011;11573;51.334;3.244;2023-04-07T08:25:59;10.15;;;2.40;;
22812;SDS011;11573;51.334;3.244;2023-04-07T08:28:25;14.60;;;2.47;;
22812;SDS011;11573;51.334;3.244;2023-04-07T08:30:52;9.85;;;2.05;;
22812;SDS011;11573;51.334;3.244;2023-04-07T08:33:19;12.77;;;2.20;;
22812;SDS011;11573;51.334;3.244;2023-04-07T08:35:46;6.38;;;1.50;;
22812;SDS011;11573;51.334;3.244;2023-04-07T08:38:13;10.85;;;2.00;;
22812;SDS011;11573;51.334;3.244;2023-04-07T08:40:40;13.93;;;2.55;;
22812;SDS011;11573;51.334;3.244;2023-04-07T08:43:08;11.13;;;1.80;;
22812;SDS011;11573;51.334;3.244;2023-04-07T08:45:37;11.65;;;2.15;;
22812;SDS011;11573;51.334;3.244;2023-04-07T08:48:15;10.38;;;2.38;;
22812;SDS011;11573;51.334;3.244;2023-04-07T08:50:44;11.60;;;1.73;;
22812;SDS011;11573;51.334;3.244;2023-04-07T08:53:12;11.10;;;2.00;;
22812;SDS011;11573;51.334;3.244;2023-04-07T08:55:42;13.45;;;2.17;;
22812;SDS011;11573;51.334;3.244;2023-04-07T08:58:09;9.90;;;1.73;;
22812;SDS011;11573;51.334;3.244;2023-04-07T09:00:39;10.85;;;2.08;;
22812;SDS011;11573;51.334;3.244;2023-04-07T09:03:09;7.70;;;1.50;;
22812;SDS011;11573;51.334;3.244;2023-04-07T09:05:37;11.57;;;1.65;;
22812;SDS011;11573;51.334;3.244;2023-04-07T09:08:05;5.55;;;1.73;;
22812;SDS011;11573;51.334;3.244;2023-04-07T09:10:32;9.48;;;1.48;;
22812;SDS011;11573;51.334;3.244;2023-04-07T09:12:59;10.90;;;2.10;;
22812;SDS011;11573;51.334;3.244;2023-04-07T09:15:28;13.27;;;2.70;;
22812;SDS011;11573;51.334;3.244;2023-04-07T09:17:57;8.60;;;1.40;;
22812;SDS011;11573;51.334;3.244;2023-04-07T09:20:24;9.02;;;1.92;;
22812;SDS011;11573;51.334;3.244;2023-04-07T09:22:51;10.23;;;1.83;;
22812;SDS011;11573;51.334;3.244;2023-04-07T09:25:23;7.85;;;1.70;;
22812;SDS011;11573;51.334;3.244;2023-04-07T09:28:02;6.60;;;1.50;;
22812;SDS011;11573;51.334;3.244;2023-04-07T09:30:31;5.32;;;1.60;;
22812;SDS011;11573;51.334;3.244;2023-04-07T09:32:59;8.38;;;2.10;;
22812;SDS011;11573;51.334;3.244;2023-04-07T09:35:27;8.68;;;2.13;;
22812;SDS011;11573;51.334;3.244;2023-04-07T09:40:32;8.82;;;1.60;;
22812;SDS011;11573;51.334;3.244;2023-04-07T09:43:01;10.02;;;1.65;;
22812;SDS011;11573;51.334;3.244;2023-04-07T09:45:29;6.03;;;1.70;;
22812;SDS011;11573;51.334;3.244;2023-04-07T09:48:04;6.77;;;1.90;;
22812;SDS011;11573;51.334;3.244;2023-04-07T09:50:33;8.25;;;1.88;;
22812;SDS011;11573;51.334;3.244;2023-04-07T09:53:05;6.85;;;1.80;;
22812;SDS011;11573;51.334;3.244;2023-04-07T09:55:32;6.53;;;1.73;;
22812;SDS011;11573;51.334;3.244;2023-04-07T09:58:00;7.65;;;1.60;;
22812;SDS011;11573;51.334;3.244;2023-04-07T10:00:28;6.35;;;1.50;;
22812;SDS011;11573;51.334;3.244;2023-04-07T10:02:56;7.20;;;1.77;;
22812;SDS011;11573;51.334;3.244;2023-04-07T10:05:24;7.18;;;1.52;;
22812;SDS011;11573;51.334;3.244;2023-04-07T10:07:51;7.03;;;2.00;;
22812;SDS011;11573;51.334;3.244;2023-04-07T10:10:19;10.27;;;2.10;;
22812;SDS011;11573;51.334;3.244;2023-04-07T10:12:46;8.82;;;1.80;;
22812;SDS011;11573;51.334;3.244;2023-04-07T10:15:17;7.10;;;1.90;;
22812;SDS011;11573;51.334;3.244;2023-04-07T10:17:47;9.02;;;2.17;;
22812;SDS011;11573;51.334;3.244;2023-04-07T10:20:19;14.65;;;2.15;;
22812;SDS011;11573;51.334;3.244;2023-04-07T10:22:47;12.43;;;1.83;;
22812;SDS011;11573;51.334;3.244;2023-04-07T10:25:17;8.32;;;2.00;;
22812;SDS011;11573;51.334;3.244;2023-04-07T10:27:47;17.13;;;2.25;;
22812;SDS011;11573;51.334;3.244;2023-04-07T10:30:21;11.73;;;2.50;;
22812;SDS011;11573;51.334;3.244;2023-04-07T10:32:51;9.07;;;1.90;;
22812;SDS011;11573;51.334;3.244;2023-04-07T10:35:20;10.43;;;2.05;;
22812;SDS011;11573;51.334;3.244;2023-04-07T10:40:33;13.13;;;2.75;;
22812;SDS011;11573;51.334;3.244;2023-04-07T10:43:01;8.93;;;1.77;;
22812;SDS011;11573;51.334;3.244;2023-04-07T10:46:12;9.10;;;1.77;;
22812;SDS011;11573;51.334;3.244;2023-04-07T10:48:21;12.23;;;2.13;;
22812;SDS011;11573;51.334;3.244;2023-04-07T10:53:30;10.93;;;2.08;;
22812;SDS011;11573;51.334;3.244;2023-04-07T10:55:58;9.27;;;1.80;;
22812;SDS011;11573;51.334;3.244;2023-04-07T10:58:25;8.95;;;1.95;;
22812;SDS011;11573;51.334;3.244;2023-04-07T11:03:33;8.30;;;2.13;;
22812;SDS011;11573;51.334;3.244;2023-04-07T11:08:43;9.52;;;2.40;;
22812;SDS011;11573;51.334;3.244;2023-04-07T11:11:15;10.55;;;2.03;;
22812;SDS011;11573;51.334;3.244;2023-04-07T11:13:47;7.00;;;1.90;;
22812;SDS011;11573;51.334;3.244;2023-04-07T11:16:17;8.75;;;2.05;;
22812;SDS011;11573;51.334;3.244;2023-04-07T11:18:46;12.43;;;1.85;;
22812;SDS011;11573;51.334;3.244;2023-04-07T11:21:16;9.52;;;1.77;;
22812;SDS011;11573;51.334;3.244;2023-04-07T11:23:44;8.57;;;1.92;;
22812;SDS011;11573;51.334;3.244;2023-04-07T11:26:13;9.65;;;1.90;;
22812;SDS011;11573;51.334;3.244;2023-04-07T11:28:48;7.85;;;2.17;;
22812;SDS011;11573;51.334;3.244;2023-04-07T11:31:29;7.05;;;1.60;;
22812;SDS011;11573;51.334;3.244;2023-04-07T11:33:58;6.45;;;1.67;;
22812;SDS011;11573;51.334;3.244;2023-04-07T11:36:33;6.03;;;1.58;;
22812;SDS011;11573;51.334;3.244;2023-04-07T11:39:03;8.43;;;1.85;;
22812;SDS011;11573;51.334;3.244;2023-04-07T11:41:31;7.90;;;1.65;;
22812;SDS011;11573;51.334;3.244;2023-04-07T11:44:08;8.25;;;1.60;;
22812;SDS011;11573;51.334;3.244;2023-04-07T11:46:56;5.75;;;1.38;;
22812;SDS011;11573;51.334;3.244;2023-04-07T11:49:25;11.80;;;1.83;;
22812;SDS011;11573;51.334;3.244;2023-04-07T11:51:57;5.68;;;2.05;;
22812;SDS011;11573;51.334;3.244;2023-04-07T11:54:46;5.40;;;1.38;;
22812;SDS011;11573;51.334;3.244;2023-04-07T11:57:23;8.50;;;1.80;;
22812;SDS011;11573;51.334;3.244;2023-04-07T12:02:48;7.72;;;1.50;;
22812;SDS011;11573;51.334;3.244;2023-04-07T12:05:15;5.53;;;1.23;;
22812;SDS011;11573;51.334;3.244;2023-04-07T12:07:51;6.57;;;1.58;;
22812;SDS011;11573;51.334;3.244;2023-04-07T12:10:19;13.05;;;2.28;;
22812;SDS011;11573;51.334;3.244;2023-04-07T12:12:48;10.63;;;2.13;;
22812;SDS011;11573;51.334;3.244;2023-04-07T12:15:15;8.07;;;1.45;;
22812;SDS011;11573;51.334;3.244;2023-04-07T12:17:46;8.77;;;2.00;;
22812;SDS011;11573;51.334;3.244;2023-04-07T12:20:14;11.32;;;2.00;;
22812;SDS011;11573;51.334;3.244;2023-04-07T12:22:42;7.35;;;2.00;;
22812;SDS011;11573;51.334;3.244;2023-04-07T12:25:09;8.50;;;2.40;;
22812;SDS011;11573;51.334;3.244;2023-04-07T12:27:36;11.95;;;2.50;;
22812;SDS011;11573;51.334;3.244;2023-04-07T12:30:09;10.52;;;2.40;;
22812;SDS011;11573;51.334;3.244;2023-04-07T12:32:38;7.75;;;1.75;;
22812;SDS011;11573;51.334;3.244;2023-04-07T12:35:05;6.28;;;1.50;;
22812;SDS011;11573;51.334;3.244;2023-04-07T12:37:32;10.98;;;1.70;;
22812;SDS011;11573;51.334;3.244;2023-04-07T12:39:59;9.48;;;3.10;;
22812;SDS011;11573;51.334;3.244;2023-04-07T12:42:26;30.52;;;10.65;;
22812;SDS011;11573;51.334;3.244;2023-04-07T12:44:53;2.63;;;1.48;;
22812;SDS011;11573;51.334;3.244;2023-04-07T12:47:20;13.50;;;3.90;;
22812;SDS011;11573;51.334;3.244;2023-04-07T12:49:48;13.52;;;2.78;;
22812;SDS011;11573;51.334;3.244;2023-04-07T12:52:15;11.25;;;2.55;;
22812;SDS011;11573;51.334;3.244;2023-04-07T12:54:42;11.63;;;2.58;;
22812;SDS011;11573;51.334;3.244;2023-04-07T12:57:10;5.28;;;2.33;;
22812;SDS011;11573;51.334;3.244;2023-04-07T12:59:38;9.52;;;2.10;;
22812;SDS011;11573;51.334;3.244;2023-04-07T13:02:05;7.07;;;1.58;;
22812;SDS011;11573;51.334;3.244;2023-04-07T13:04:33;10.90;;;2.10;;
22812;SDS011;11573;51.334;3.244;2023-04-07T13:07:01;5.18;;;1.67;;
22812;SDS011;11573;51.334;3.244;2023-04-07T13:09:28;7.47;;;1.42;;
22812;SDS011;11573;51.334;3.244;2023-04-07T13:11:55;5.35;;;1.60;;
22812;SDS011;11573;51.334;3.244;2023-04-07T13:14:23;4.82;;;1.02;;
22812;SDS011;11573;51.334;3.244;2023-04-07T13:16:50;6.70;;;1.52;;
22812;SDS011;11573;51.334;3.244;2023-04-07T13:19:17;6.05;;;1.95;;
22812;SDS011;11573;51.334;3.244;2023-04-07T13:21:44;7.80;;;1.60;;
22812;SDS011;11573;51.334;3.244;2023-04-07T13:24:13;9.70;;;2.55;;
22812;SDS011;11573;51.334;3.244;2023-04-07T13:26:41;9.27;;;3.45;;
22812;SDS011;11573;51.334;3.244;2023-04-07T13:29:08;14.75;;;5.15;;
22812;SDS011;11573;51.334;3.244;2023-04-07T13:31:35;9.80;;;1.70;;
22812;SDS011;11573;51.334;3.244;2023-04-07T13:34:02;8.90;;;1.92;;
22812;SDS011;11573;51.334;3.244;2023-04-07T13:36:28;8.50;;;1.83;;
22812;SDS011;11573;51.334;3.244;2023-04-07T13:38:55;7.45;;;1.30;;
22812;SDS011;11573;51.334;3.244;2023-04-07T13:41:22;3.58;;;1.15;;
22812;SDS011;11573;51.334;3.244;2023-04-07T13:43:49;7.47;;;1.83;;
22812;SDS011;11573;51.334;3.244;2023-04-07T13:46:17;8.85;;;1.65;;
22812;SDS011;11573;51.334;3.244;2023-04-07T13:48:46;6.13;;;1.70;;
22812;SDS011;11573;51.334;3.244;2023-04-07T13:51:14;6.32;;;1.88;;
22812;SDS011;11573;51.334;3.244;2023-04-07T13:53:42;10.05;;;2.22;;
22812;SDS011;11573;51.334;3.244;2023-04-07T13:56:09;5.68;;;1.45;;
22812;SDS011;11573;51.334;3.244;2023-04-07T13:58:36;7.45;;;1.90;;
22812;SDS011;11573;51.334;3.244;2023-04-07T14:01:03;6.00;;;1.52;;
22812;SDS011;11573;51.334;3.244;2023-04-07T14:03:30;7.43;;;1.27;;
22812;SDS011;11573;51.334;3.244;2023-04-07T14:05:57;6.07;;;1.60;;
22812;SDS011;11573;51.334;3.244;2023-04-07T14:08:26;7.13;;;1.60;;
22812;SDS011;11573;51.334;3.244;2023-04-07T14:10:53;6.13;;;1.40;;
22812;SDS011;11573;51.334;3.244;2023-04-07T14:13:20;3.95;;;1.60;;
22812;SDS011;11573;51.334;3.244;2023-04-07T14:15:48;7.10;;;1.52;;
22812;SDS011;11573;51.334;3.244;2023-04-07T14:18:15;6.38;;;2.05;;
22812;SDS011;11573;51.334;3.244;2023-04-07T14:20:42;7.68;;;1.80;;
22812;SDS011;11573;51.334;3.244;2023-04-07T14:23:10;9.70;;;1.80;;
22812;SDS011;11573;51.334;3.244;2023-04-07T14:25:37;6.05;;;1.17;;
22812;SDS011;11573;51.334;3.244;2023-04-07T14:28:04;9.00;;;1.67;;
22812;SDS011;11573;51.334;3.244;2023-04-07T14:30:34;8.82;;;1.73;;
22812;SDS011;11573;51.334;3.244;2023-04-07T14:33:04;9.48;;;1.63;;
22812;SDS011;11573;51.334;3.244;2023-04-07T14:35:31;8.77;;;2.63;;
22812;SDS011;11573;51.334;3.244;2023-04-07T14:37:58;12.23;;;1.83;;
22812;SDS011;11573;51.334;3.244;2023-04-07T14:40:25;7.75;;;2.13;;
22812;SDS011;11573;51.334;3.244;2023-04-07T14:42:52;10.70;;;2.03;;
22812;SDS011;11573;51.334;3.244;2023-04-07T14:45:33;8.25;;;2.00;;
22812;SDS011;11573;51.334;3.244;2023-04-07T14:48:01;7.88;;;1.58;;
22812;SDS011;11573;51.334;3.244;2023-04-07T14:50:30;9.18;;;1.95;;
22812;SDS011;11573;51.334;3.244;2023-04-07T14:53:00;12.68;;;2.05;;
22812;SDS011;11573;51.334;3.244;2023-04-07T14:55:27;9.63;;;2.47;;
22812;SDS011;11573;51.334;3.244;2023-04-07T14:57:56;11.15;;;1.80;;
22812;SDS011;11573;51.334;3.244;2023-04-07T15:00:23;7.65;;;2.13;;
22812;SDS011;11573;51.334;3.244;2023-04-07T15:02:51;8.60;;;1.88;;
22812;SDS011;11573;51.334;3.244;2023-04-07T15:05:21;9.00;;;2.15;;
22812;SDS011;11573;51.334;3.244;2023-04-07T15:07:48;7.05;;;1.88;;
22812;SDS011;11573;51.334;3.244;2023-04-07T15:10:17;12.93;;;5.68;;
22812;SDS011;11573;51.334;3.244;2023-04-07T15:12:45;10.27;;;3.25;;
22812;SDS011;11573;51.334;3.244;2023-04-07T15:15:13;10.82;;;1.80;;